Cedar Ravine, California
Current Conditions -  °F | °C
As of 5:35 PM on Tuesday 25 Nov 2014 (Local Time) from KPVF Reporting Station
Clear Clear  
Wind Chill: 13°   Ceiling: Unl
Heat Index: 13°   Visibility: 10mi
Dew Point:   Wind: 0mph
Humidity: 47%   Direction: NA
Pressure: 30.41"   Gusts: NA
Location:  38.7308°N, 120.774°W
Report Text: KPVF 260135Z AUTO 00000KT 10SM CLR 13/02 A3041 RMK AO1
Loading
Personal Weather Stations






























Interactive Weather Map New forecast layout! Learn more

10-Day Weather Forecast

Advertisements
Track Severe Weather on mobile